Time;durP1;ratioP1;P1;durP2;ratioP2;P2;SDS_P1;SDS_P2;PMS_P1;PMS_P2;Temp;Humidity;BMP_temperature;BMP_pressure;BME280_temperature;BME280_humidity;BME280_pressure;Samples;Min_cycle;Max_cycle;Signal;HPM_P1;HPM_P2
2022/02/11 00:08:17;;;;;;;7.03;3.42;;;8.10;74.30;;;;;;5091173;28;20107;-66
2022/02/11 00:10:43;;;;;;;5.47;3.30;;;8.10;74.00;;;;;;5094437;28;20162;-66
2022/02/11 00:13:09;;;;;;;6.18;3.17;;;8.00;74.30;;;;;;5094932;28;20034;-66
2022/02/11 00:15:44;;;;;;;4.95;3.30;;;8.00;74.50;;;;;;5095026;28;20047;-66
2022/02/11 00:18:15;;;;;;;4.15;3.05;;;8.00;74.00;;;;;;5098812;28;20459;-66
2022/02/11 00:20:51;;;;;;;4.97;3.10;;;7.90;74.20;;;;;;5099133;28;20038;-66
2022/02/11 00:23:19;;;;;;;6.18;3.50;;;7.80;74.30;;;;;;5080108;28;20036;-66
2022/02/11 00:25:58;;;;;;;4.20;2.97;;;7.80;74.40;;;;;;5098133;28;20024;-66
2022/02/11 00:33:26;;;;;;;5.82;3.20;;;7.60;74.40;;;;;;5098365;28;20036;-66
2022/02/11 00:38:25;;;;;;;5.88;3.22;;;7.60;74.60;;;;;;5095031;28;20078;-65
2022/02/11 01:04:41;;;;;;;5.55;3.38;;;7.40;74.80;;;;;;5107487;28;20131;-66
2022/02/11 01:07:08;;;;;;;6.25;3.42;;;7.30;74.50;;;;;;5098377;28;20112;-66
2022/02/11 01:09:34;;;;;;;5.43;3.03;;;7.30;74.70;;;;;;5097513;28;20012;-66
2022/02/11 01:12:03;;;;;;;6.93;3.50;;;7.30;74.70;;;;;;5097586;28;20035;-66
2022/02/11 01:14:41;;;;;;;5.43;3.17;;;7.30;74.90;;;;;;5095699;28;20568;-66
2022/02/11 01:19:56;;;;;;;5.10;3.38;;;7.30;74.70;;;;;;5107316;28;20032;-66
2022/02/11 01:22:42;;;;;;;6.15;3.45;;;7.30;74.90;;;;;;5081140;28;20035;-66
2022/02/11 01:28:10;;;;;;;5.38;3.35;;;7.30;74.90;;;;;;5096907;28;20024;-66
2022/02/11 01:36:09;;;;;;;4.22;3.13;;;7.20;74.80;;;;;;5097391;28;20032;-66
2022/02/11 01:57:27;;;;;;;4.55;2.90;;;7.10;74.90;;;;;;5097029;28;20393;-66
2022/02/11 02:23:57;;;;;;;4.20;2.60;;;7.00;75.10;;;;;;5011160;28;20050;-67
2022/02/11 02:56:38;;;;;;;5.13;2.97;;;6.70;76.00;;;;;;5095619;28;20070;-67
2022/02/11 02:59:30;;;;;;;5.60;2.70;;;6.60;75.30;;;;;;5091713;28;20129;-67
2022/02/11 04:56:31;;;;;;;4.78;3.10;;;6.10;75.30;;;;;;4919734;29;20086;-67
2022/02/11 05:01:42;;;;;;;;;;;6.20;75.40;;;;;;4947063;28;20515;-67
2022/02/11 05:04:08;;;;;;;5.40;3.15;;;6.20;75.00;;;;;;4953977;28;19951;-67
2022/02/11 05:06:33;;;;;;;5.65;3.30;;;6.10;75.30;;;;;;5008957;28;20037;-67
2022/02/11 05:09:02;;;;;;;6.00;3.20;;;6.00;75.00;;;;;;5032492;28;20037;-67
2022/02/11 05:11:28;;;;;;;6.32;3.30;;;6.00;75.40;;;;;;5032029;28;20542;-67
2022/02/11 05:13:53;;;;;;;5.88;3.60;;;6.00;75.40;;;;;;5032461;28;20037;-67
2022/02/11 05:16:19;;;;;;;4.97;3.42;;;5.90;75.30;;;;;;5032527;28;20489;-67
2022/02/11 05:18:44;;;;;;;4.38;2.97;;;5.90;75.20;;;;;;5032519;28;20037;-67
2022/02/11 05:21:10;;;;;;;5.68;3.42;;;5.90;75.40;;;;;;5032378;28;20029;-67
2022/02/11 05:23:36;;;;;;;4.03;2.80;;;5.90;75.40;;;;;;5032488;28;20042;-67
2022/02/11 05:26:02;;;;;;;5.15;3.13;;;5.90;75.40;;;;;;5032399;28;20135;-67
2022/02/11 05:28:27;;;;;;;5.65;3.58;;;5.80;75.20;;;;;;5032845;28;20099;-67
2022/02/11 05:30:53;;;;;;;4.20;3.17;;;5.80;75.50;;;;;;5068346;28;20037;-67
2022/02/11 05:33:20;;;;;;;5.00;3.10;;;5.70;75.40;;;;;;5077131;28;20103;-67
2022/02/11 05:35:47;;;;;;;6.45;3.72;;;5.70;75.60;;;;;;5077321;28;20082;-67
2022/02/11 05:38:12;;;;;;;6.85;3.03;;;5.70;76.30;;;;;;5073162;28;20074;-67
2022/02/11 05:40:38;;;;;;;6.47;3.60;;;5.70;75.80;;;;;;5079084;28;20443;-67
2022/02/11 05:43:05;;;;;;;5.57;3.20;;;5.60;75.30;;;;;;5077201;28;20035;-67
2022/02/11 05:45:31;;;;;;;4.82;3.28;;;5.60;75.50;;;;;;5076682;28;20127;-67
2022/02/11 05:47:57;;;;;;;3.55;2.63;;;5.60;75.60;;;;;;5077303;28;20138;-67
2022/02/11 05:50:22;;;;;;;4.60;3.33;;;5.60;75.90;;;;;;5074132;28;20029;-67
2022/02/11 05:52:48;;;;;;;4.85;3.10;;;5.60;75.90;;;;;;5076540;28;20036;-67
2022/02/11 05:55:14;;;;;;;5.18;2.85;;;5.60;75.90;;;;;;5078065;28;20024;-67
2022/02/11 05:57:39;;;;;;;7.00;2.95;;;5.70;75.80;;;;;;5075628;28;20035;-67
2022/02/11 06:00:06;;;;;;;4.05;2.88;;;5.60;75.80;;;;;;5076452;28;20032;-67
2022/02/11 06:02:32;;;;;;;5.60;3.03;;;5.60;75.80;;;;;;5075430;28;20106;-67
2022/02/11 06:04:57;;;;;;;5.05;2.78;;;5.60;75.80;;;;;;5073781;28;20579;-67
2022/02/11 06:07:23;;;;;;;4.25;2.95;;;5.60;75.90;;;;;;5078780;28;20127;-67
2022/02/11 06:09:48;;;;;;;5.68;2.90;;;5.60;76.00;;;;;;5076776;28;20024;-67
2022/02/11 06:12:14;;;;;;;4.32;2.83;;;5.60;75.70;;;;;;5076404;28;20485;-67
2022/02/11 06:14:41;;;;;;;5.43;2.92;;;5.60;75.80;;;;;;5087611;28;20066;-67
2022/02/11 06:17:07;;;;;;;4.93;3.00;;;5.60;75.70;;;;;;5092763;28;20029;-67
2022/02/11 06:19:33;;;;;;;4.88;2.88;;;5.50;75.70;;;;;;5098851;28;20032;-67
2022/02/11 06:21:58;;;;;;;4.78;2.65;;;5.50;75.60;;;;;;5096357;28;20035;-67
2022/02/11 06:24:24;;;;;;;4.07;2.63;;;5.50;75.70;;;;;;5096658;28;20075;-67
2022/02/11 06:26:50;;;;;;;3.80;2.60;;;5.50;76.10;;;;;;5096431;28;20488;-67
2022/02/11 06:29:15;;;;;;;4.80;2.53;;;5.50;75.90;;;;;;5091980;28;20036;-67
2022/02/11 06:31:41;;;;;;;3.28;2.47;;;5.50;75.90;;;;;;5097333;28;20055;-67
2022/02/11 06:34:07;;;;;;;4.88;2.78;;;5.50;76.10;;;;;;5096733;28;20024;-67
2022/02/11 06:36:33;;;;;;;3.90;2.90;;;5.50;76.00;;;;;;5096486;28;20032;-67
2022/02/11 06:38:59;;;;;;;3.72;2.70;;;5.50;75.80;;;;;;5096466;28;20020;-67
2022/02/11 06:41:25;;;;;;;5.68;2.85;;;5.50;75.90;;;;;;5093183;28;20039;-67
2022/02/11 06:43:51;;;;;;;3.75;2.72;;;5.50;75.80;;;;;;5094603;28;20031;-67
2022/02/11 06:46:17;;;;;;;6.40;2.80;;;5.50;75.90;;;;;;5097351;28;20067;-66
2022/02/11 06:48:44;;;;;;;4.35;2.40;;;5.40;75.90;;;;;;5096047;28;20077;-67
2022/02/11 06:51:10;;;;;;;5.22;2.60;;;5.50;75.90;;;;;;5095701;28;20024;-66
2022/02/11 06:53:36;;;;;;;4.47;2.03;;;5.50;75.80;;;;;;5076791;28;20030;-71
2022/02/11 06:56:03;;;;;;;4.63;2.72;;;5.50;75.60;;;;;;5091919;28;20036;-66
2022/02/11 06:58:28;;;;;;;5.15;2.60;;;5.40;75.60;;;;;;5113194;27;20027;-67
2022/02/11 07:00:55;;;;;;;5.97;2.60;;;5.40;75.80;;;;;;5095460;28;20036;-66
2022/02/11 07:03:23;;;;;;;4.63;2.70;;;5.40;75.90;;;;;;5095783;28;20118;-66
2022/02/11 07:05:51;;;;;;;4.13;2.78;;;5.40;76.00;;;;;;5095818;28;20035;-68
2022/02/11 07:08:17;;;;;;;6.00;2.78;;;5.40;75.90;;;;;;5092244;28;20012;-69
2022/02/11 07:10:43;;;;;;;4.45;2.50;;;5.40;76.00;;;;;;5096300;28;20088;-67
2022/02/11 07:13:15;;;;;;;4.00;2.70;;;5.40;75.90;;;;;;5094798;28;20050;-67
2022/02/11 07:15:43;;;;;;;6.88;2.88;;;5.40;75.80;;;;;;5095248;28;20404;-67
2022/02/11 07:18:09;;;;;;;4.97;2.83;;;5.40;76.10;;;;;;5095742;28;20020;-67
2022/02/11 07:20:35;;;;;;;4.53;2.72;;;5.40;76.40;;;;;;5094569;28;20423;-67
2022/02/11 07:23:02;;;;;;;4.50;2.70;;;5.50;75.80;;;;;;5091949;28;20174;-67
2022/02/11 07:25:27;;;;;;;5.72;2.90;;;5.40;75.60;;;;;;5096418;28;20489;-67
2022/02/11 07:27:53;;;;;;;6.20;3.38;;;5.40;75.80;;;;;;5095308;28;20032;-68
2022/02/11 07:30:20;;;;;;;5.15;3.40;;;5.40;75.90;;;;;;5095167;28;20035;-68
2022/02/11 07:32:46;;;;;;;5.68;3.80;;;5.40;75.90;;;;;;5095446;28;20397;-67
2022/02/11 07:35:12;;;;;;;6.32;4.00;;;5.40;75.90;;;;;;5090931;28;20082;-68
2022/02/11 07:37:38;;;;;;;6.18;3.95;;;5.40;76.20;;;;;;5097438;28;20438;-68
2022/02/11 07:40:04;;;;;;;6.72;3.83;;;5.50;76.20;;;;;;5094972;28;20059;-68
2022/02/11 07:42:30;;;;;;;7.35;3.90;;;5.50;76.10;;;;;;5095109;28;20503;-68
2022/02/11 07:44:57;;;;;;;5.63;4.20;;;5.60;76.30;;;;;;5094796;28;20031;-67
2022/02/11 07:47:24;;;;;;;6.15;3.58;;;5.60;76.20;;;;;;5092060;28;20020;-68
2022/02/11 07:49:50;;;;;;;6.22;3.63;;;5.70;76.00;;;;;;5093952;28;20035;-67
2022/02/11 07:52:15;;;;;;;4.80;3.50;;;5.80;76.30;;;;;;5094794;28;20016;-67
2022/02/11 07:54:42;;;;;;;6.18;3.70;;;5.90;76.40;;;;;;5094667;28;20058;-68
2022/02/11 07:57:08;;;;;;;9.55;4.38;;;6.10;76.40;;;;;;5094708;28;20020;-68
2022/02/11 07:59:34;;;;;;;8.35;4.57;;;6.30;76.80;;;;;;5093232;28;20039;-68
2022/02/11 08:02:00;;;;;;;8.70;4.40;;;6.70;76.40;;;;;;5091310;28;20016;-68
2022/02/11 08:04:25;;;;;;;13.80;5.47;;;6.80;75.80;;;;;;5095842;28;20098;-67
2022/02/11 08:06:51;;;;;;;12.27;4.85;;;7.00;75.10;;;;;;5093283;28;20035;-67
2022/02/11 08:09:17;;;;;;;9.13;5.07;;;7.10;74.90;;;;;;5094339;28;20035;-67
2022/02/11 08:11:42;;;;;;;8.73;4.65;;;7.40;76.20;;;;;;5094339;28;20020;-68
2022/02/11 08:14:08;;;;;;;13.10;5.47;;;7.60;74.60;;;;;;5090319;28;20507;-68
2022/02/11 08:16:33;;;;;;;8.25;4.47;;;7.90;74.90;;;;;;5096667;28;20027;-67
2022/02/11 08:18:59;;;;;;;9.02;4.53;;;8.10;74.60;;;;;;5094738;28;20119;-67
2022/02/11 08:21:25;;;;;;;7.90;4.72;;;8.20;72.20;;;;;;5094650;28;20112;-72
2022/02/11 08:23:53;;;;;;;8.32;4.43;;;8.30;71.80;;;;;;5075710;28;20495;-71
2022/02/11 08:26:19;;;;;;;7.80;4.60;;;8.20;71.10;;;;;;5090977;28;20500;-71
2022/02/11 08:28:45;;;;;;;8.68;4.88;;;8.20;71.20;;;;;;5076311;28;20077;-68
2022/02/11 08:31:11;;;;;;;8.32;4.90;;;8.30;71.60;;;;;;5095218;28;20020;-69
2022/02/11 08:33:37;;;;;;;10.32;5.05;;;8.30;71.70;;;;;;5089172;28;20036;-68
2022/02/11 08:36:03;;;;;;;7.68;4.90;;;8.50;71.70;;;;;;5093733;28;20026;-69
2022/02/11 08:38:29;;;;;;;7.97;5.50;;;8.50;71.20;;;;;;5093242;28;20059;-69
2022/02/11 08:40:55;;;;;;;7.60;4.82;;;8.60;70.90;;;;;;5095820;28;20068;-68
2022/02/11 08:43:24;;;;;;;11.85;5.60;;;8.70;71.10;;;;;;5115380;27;20024;-69
2022/02/11 08:45:50;;;;;;;6.03;4.75;;;9.00;71.20;;;;;;5097777;28;20103;-69
2022/02/11 08:48:16;;;;;;;10.77;5.05;;;9.20;71.30;;;;;;5097294;28;20883;-69
2022/02/11 08:50:43;;;;;;;11.15;5.50;;;9.40;71.60;;;;;;5097704;28;20039;-66
2022/02/11 08:53:10;;;;;;;8.63;5.55;;;9.70;71.20;;;;;;5087248;28;20056;-63
2022/02/11 08:55:36;;;;;;;7.55;5.13;;;9.80;70.30;;;;;;5099289;28;20020;-64
2022/02/11 08:58:06;;;;;;;9.85;5.38;;;9.80;69.30;;;;;;5097639;28;20085;-64
2022/02/11 09:00:32;;;;;;;11.57;5.13;;;9.90;70.80;;;;;;5097097;28;20024;-64
2022/02/11 09:02:58;;;;;;;8.80;5.00;;;10.10;70.50;;;;;;5097792;28;20034;-64
2022/02/11 09:05:27;;;;;;;6.63;4.85;;;10.30;69.40;;;;;;5094385;28;20032;-65
2022/02/11 09:08:00;;;;;;;8.55;4.90;;;10.50;69.10;;;;;;5095599;28;20485;-65
2022/02/11 09:10:27;;;;;;;9.07;5.18;;;10.70;69.40;;;;;;5097633;28;20081;-64
2022/02/11 09:12:54;;;;;;;10.90;5.15;;;10.90;68.80;;;;;;5097633;28;20505;-65
2022/02/11 09:15:21;;;;;;;8.43;4.60;;;11.10;68.60;;;;;;5097004;28;20048;-63
2022/02/11 09:17:48;;;;;;;7.30;5.22;;;11.40;69.50;;;;;;5097264;28;20030;-65
2022/02/11 09:20:13;;;;;;;7.15;5.00;;;11.70;68.30;;;;;;5074322;28;20131;-65
2022/02/11 09:22:39;;;;;;;10.32;5.15;;;11.90;67.90;;;;;;5080298;28;20110;-65
2022/02/11 09:25:05;;;;;;;7.82;4.60;;;12.00;67.10;;;;;;5097100;28;20130;-65
2022/02/11 09:27:31;;;;;;;9.82;5.00;;;12.10;66.50;;;;;;5096848;28;20016;-65
2022/02/11 09:29:56;;;;;;;5.85;5.15;;;12.20;66.00;;;;;;5078412;28;20452;-65
2022/02/11 09:32:22;;;;;;;12.07;5.40;;;12.40;65.50;;;;;;5094064;28;20028;-65
2022/02/11 09:34:48;;;;;;;9.07;5.45;;;12.50;66.20;;;;;;5096598;28;20028;-65
2022/02/11 09:37:14;;;;;;;8.80;5.70;;;12.70;65.20;;;;;;5097402;28;20024;-66
2022/02/11 09:39:39;;;;;;;7.43;4.88;;;12.90;64.10;;;;;;5096247;28;20438;-65
2022/02/11 09:42:06;;;;;;;8.82;5.10;;;12.80;63.40;;;;;;5096861;28;20419;-65
2022/02/11 09:44:32;;;;;;;10.75;5.68;;;13.00;64.90;;;;;;5095052;28;20039;-65
2022/02/11 09:46:59;;;;;;;8.73;5.47;;;13.20;64.60;;;;;;5093892;28;20099;-65
2022/02/11 09:49:25;;;;;;;9.27;5.20;;;13.40;64.30;;;;;;5098258;28;20028;-65
2022/02/11 09:51:55;;;;;;;6.97;5.47;;;13.40;62.80;;;;;;5095856;28;20020;-65
2022/02/11 09:54:21;;;;;;;10.27;5.80;;;13.40;63.00;;;;;;5096552;28;20013;-65
2022/02/11 09:56:50;;;;;;;10.52;6.50;;;13.80;65.30;;;;;;5078541;28;20122;-65
2022/02/11 09:59:15;;;;;;;10.90;6.53;;;13.90;62.30;;;;;;5092607;28;20024;-65
2022/02/11 10:01:42;;;;;;;10.00;6.07;;;13.90;62.10;;;;;;5097390;28;20400;-65
2022/02/11 10:04:11;;;;;;;11.15;6.57;;;14.10;61.90;;;;;;5096799;28;20028;-65
2022/02/11 10:06:38;;;;;;;11.35;6.70;;;14.40;62.20;;;;;;5095898;28;20082;-65
2022/02/11 10:09:05;;;;;;;11.90;6.90;;;14.50;61.00;;;;;;5096357;28;20480;-65
2022/02/11 10:11:31;;;;;;;10.95;6.63;;;14.60;59.90;;;;;;5093810;28;20101;-65
2022/02/11 10:14:15;;;;;;;11.20;6.97;;;14.70;60.80;;;;;;5093623;28;20051;-65
2022/02/11 10:17:14;;;;;;;9.27;6.07;;;14.90;60.90;;;;;;5106152;28;20044;-63
2022/02/11 10:19:51;;;;;;;8.25;5.72;;;14.90;62.00;;;;;;5105231;28;20571;-65
2022/02/11 10:22:25;;;;;;;7.45;5.63;;;15.00;59.50;;;;;;5096918;28;20156;-65
2022/02/11 10:24:52;;;;;;;11.48;4.72;;;14.90;59.00;;;;;;5095977;28;20036;-65
2022/02/11 10:27:25;;;;;;;16.38;10.75;;;15.00;58.30;;;;;;5096089;28;20024;-65
2022/02/11 10:29:55;;;;;;;9.07;5.40;;;14.90;58.80;;;;;;5095970;28;20047;-65
2022/02/11 10:32:43;;;;;;;7.40;4.35;;;15.20;58.80;;;;;;5074171;28;20024;-65
2022/02/11 10:35:11;;;;;;;9.25;4.07;;;15.40;60.70;;;;;;5067579;28;20127;-65
2022/02/11 10:38:04;;;;;;;6.97;2.97;;;15.70;59.90;;;;;;5097769;28;20024;-65
2022/02/11 10:40:32;;;;;;;8.57;3.53;;;15.70;57.40;;;;;;5096857;28;20031;-65
2022/02/11 10:42:58;;;;;;;5.45;2.60;;;15.70;56.20;;;;;;5095272;28;20032;-65
2022/02/11 10:45:40;;;;;;;5.50;2.75;;;16.00;56.30;;;;;;5095215;28;20036;-65
2022/02/11 10:48:23;;;;;;;5.70;2.28;;;16.20;56.30;;;;;;5095328;28;20016;-78
2022/02/11 10:50:57;;;;;;;4.55;2.17;;;16.20;56.50;;;;;;5095470;28;20023;-80
2022/02/11 10:53:28;;;;;;;6.57;2.00;;;16.30;55.90;;;;;;5092050;28;20020;-77
2022/02/11 10:55:54;;;;;;;3.83;1.73;;;16.40;58.10;;;;;;5093955;28;20500;-77
2022/02/11 10:58:20;;;;;;;5.50;1.88;;;16.00;53.80;;;;;;5097847;28;20027;-76
2022/02/11 11:00:46;;;;;;;5.45;1.95;;;15.70;52.70;;;;;;5095182;28;20028;-77
2022/02/11 11:03:12;;;;;;;4.93;1.88;;;16.00;58.10;;;;;;5095651;28;20028;-80
2022/02/11 11:05:41;;;;;;;6.00;2.28;;;16.10;53.00;;;;;;5076836;28;20063;-73
2022/02/11 11:08:11;;;;;;;6.35;2.83;;;16.00;53.40;;;;;;5091567;28;20894;-72
2022/02/11 11:10:47;;;;;;;7.25;2.55;;;15.90;52.20;;;;;;5104938;28;20019;-72
2022/02/11 11:13:14;;;;;;;6.45;2.10;;;15.50;53.00;;;;;;5078341;28;20578;-74
2022/02/11 11:15:44;;;;;;;5.38;1.98;;;15.60;51.10;;;;;;5095637;28;20072;-67
2022/02/11 11:18:11;;;;;;;5.20;1.65;;;15.40;52.00;;;;;;5095278;28;20028;-67
2022/02/11 11:20:42;;;;;;;4.63;1.67;;;15.30;53.80;;;;;;5094619;28;20031;-71
2022/02/11 11:23:28;;;;;;;5.00;1.90;;;15.60;55.70;;;;;;5071848;28;20043;-70
2022/02/11 11:26:06;;;;;;;4.30;1.63;;;15.90;52.40;;;;;;5105644;28;20032;-68
2022/02/11 11:28:49;;;;;;;4.13;1.63;;;15.60;54.00;;;;;;5096616;28;20024;-67
2022/02/11 11:31:24;;;;;;;5.93;2.25;;;16.10;56.20;;;;;;5078168;28;20066;-68
2022/02/11 11:33:51;;;;;;;4.72;1.27;;;16.10;53.90;;;;;;5094691;28;20027;-68
2022/02/11 11:36:21;;;;;;;5.90;2.03;;;16.30;55.40;;;;;;5095295;28;20495;-68
2022/02/11 11:38:58;;;;;;;5.25;1.60;;;16.00;51.20;;;;;;5095259;28;20030;-67
2022/02/11 11:41:29;;;;;;;5.85;1.98;;;15.90;52.70;;;;;;5092635;28;20198;-67
2022/02/11 11:43:57;;;;;;;5.05;1.27;;;16.00;54.10;;;;;;5092283;28;20358;-69
2022/02/11 11:46:35;;;;;;;5.05;1.30;;;15.90;50.90;;;;;;5096929;28;20111;-69
2022/02/11 11:49:07;;;;;;;4.07;1.48;;;15.90;51.50;;;;;;5094558;28;20103;-73
2022/02/11 11:51:36;;;;;;;4.35;1.50;;;15.90;53.50;;;;;;5095013;28;20083;-66
2022/02/11 11:54:21;;;;;;;5.93;2.00;;;16.20;52.70;;;;;;5094784;28;20450;-67
2022/02/11 11:56:54;;;;;;;5.63;2.20;;;16.60;54.40;;;;;;5094914;28;20027;-67
2022/02/11 11:59:24;;;;;;;7.35;2.38;;;16.70;51.90;;;;;;5091806;28;20020;-67
2022/02/11 12:02:20;;;;;;;6.78;2.97;;;16.50;49.20;;;;;;5075105;28;20028;-66
2022/02/11 12:04:59;;;;;;;8.27;4.63;;;16.50;52.80;;;;;;5104904;28;20031;-67
2022/02/11 12:07:36;;;;;;;6.40;2.55;;;15.90;52.10;;;;;;5096827;28;20033;-67
2022/02/11 12:10:07;;;;;;;6.88;2.53;;;15.50;49.80;;;;;;5094954;28;20024;-66
2022/02/11 12:12:36;;;;;;;8.60;2.45;;;15.60;50.90;;;;;;5094498;28;20032;-66
2022/02/11 12:15:04;;;;;;;4.85;2.40;;;15.50;52.90;;;;;;5094074;28;20043;-65
2022/02/11 12:17:30;;;;;;;7.18;2.33;;;15.80;50.50;;;;;;5092774;28;20028;-65
2022/02/11 12:19:56;;;;;;;4.60;2.33;;;15.50;48.90;;;;;;5091893;28;20480;-66
2022/02/11 12:22:24;;;;;;;7.63;2.25;;;15.20;50.50;;;;;;5096524;28;20473;-70
2022/02/11 12:27:40;;;;;;;5.10;2.08;;;15.10;52.50;;;;;;5094875;28;20055;-67
2022/02/11 12:30:11;;;;;;;5.72;2.35;;;15.50;51.20;;;;;;5094316;28;20020;-66
2022/02/11 12:32:48;;;;;;;4.47;1.80;;;15.40;50.20;;;;;;5093843;28;20059;-66
2022/02/11 12:35:23;;;;;;;5.40;2.00;;;15.20;51.00;;;;;;5075144;28;20017;-67
2022/02/11 12:37:49;;;;;;;6.05;2.03;;;15.30;52.70;;;;;;5094017;28;20107;-65
2022/02/11 12:40:21;;;;;;;3.22;1.60;;;15.30;51.10;;;;;;5095823;28;20512;-65
2022/02/11 12:42:49;;;;;;;6.83;1.63;;;15.20;51.20;;;;;;5094631;28;20153;-65
2022/02/11 12:45:24;;;;;;;5.40;1.50;;;15.10;52.40;;;;;;5093828;28;20031;-66
2022/02/11 12:47:52;;;;;;;6.22;1.40;;;15.60;52.50;;;;;;5094693;28;20020;-65
2022/02/11 12:50:39;;;;;;;5.82;1.70;;;15.50;47.90;;;;;;5091198;28;20130;-66
2022/02/11 12:53:07;;;;;;;4.45;1.35;;;15.50;50.00;;;;;;5089896;28;20024;-65
2022/02/11 12:55:37;;;;;;;4.15;1.83;;;15.70;49.70;;;;;;5076634;28;20036;-69
2022/02/11 12:58:08;;;;;;;6.50;1.80;;;15.60;46.70;;;;;;5092398;28;20023;-69
2022/02/11 13:00:43;;;;;;;9.82;5.03;;;15.80;48.70;;;;;;5094100;28;20020;-68
2022/02/11 13:03:12;;;;;;;5.90;1.65;;;16.00;47.00;;;;;;5083325;28;20054;-69
2022/02/11 13:05:48;;;;;;;5.82;1.75;;;16.50;50.20;;;;;;5093248;28;20060;-70
2022/02/11 13:08:19;;;;;;;5.55;1.70;;;17.00;49.20;;;;;;5072245;28;20009;-67
2022/02/11 13:10:48;;;;;;;3.83;1.40;;;17.70;48.80;;;;;;5073394;28;20050;-65
2022/02/11 13:13:18;;;;;;;2.92;1.50;;;18.00;47.60;;;;;;5093866;28;20015;-66
2022/02/11 13:15:46;;;;;;;4.30;1.63;;;18.70;47.70;;;;;;5086752;28;20032;-69
2022/02/11 13:18:13;;;;;;;2.47;1.40;;;19.10;44.90;;;;;;5082844;28;20028;-67
2022/02/11 13:20:41;;;;;;;5.18;1.70;;;19.60;46.00;;;;;;5069995;28;20021;-68
2022/02/11 13:23:09;;;;;;;3.65;1.30;;;20.10;45.10;;;;;;5071265;28;20085;-67
2022/02/11 13:25:37;;;;;;;3.97;1.30;;;20.10;41.00;;;;;;5089906;28;20500;-67
2022/02/11 13:28:11;;;;;;;2.83;1.13;;;19.90;39.80;;;;;;5087194;28;20051;-67
2022/02/11 13:30:38;;;;;;;2.78;1.10;;;18.90;40.90;;;;;;5094325;28;20017;-67
2022/02/11 13:33:21;;;;;;;3.65;1.10;;;19.10;41.90;;;;;;5090610;28;20031;-69
2022/02/11 13:35:48;;;;;;;4.25;1.05;;;19.10;40.60;;;;;;5089990;28;20173;-68
2022/02/11 13:38:22;;;;;;;2.35;1.10;;;18.30;39.50;;;;;;5082404;28;20102;-68
2022/02/11 13:41:12;;;;;;;4.10;1.35;;;18.10;44.10;;;;;;5089265;28;20536;-68
2022/02/11 13:43:53;;;;;;;2.10;1.00;;;17.80;43.40;;;;;;5081400;28;20093;-69
2022/02/11 13:46:25;;;;;;;2.00;0.70;;;17.80;44.70;;;;;;5088953;28;20043;-65
2022/02/11 13:48:53;;;;;;;1.80;0.80;;;17.90;43.90;;;;;;5082867;28;20500;-67
2022/02/11 13:51:20;;;;;;;2.78;1.10;;;17.50;41.80;;;;;;5065850;28;20101;-68
2022/02/11 13:53:53;;;;;;;4.13;1.25;;;18.00;43.70;;;;;;5078738;28;20028;-67
2022/02/11 13:56:36;;;;;;;2.95;0.88;;;18.10;40.00;;;;;;5075415;28;20036;-68
2022/02/11 13:59:10;;;;;;;5.05;0.95;;;18.30;42.00;;;;;;5090523;28;20020;-68
2022/02/11 14:01:40;;;;;;;3.47;1.00;;;18.80;42.70;;;;;;5077489;28;20389;-68
2022/02/11 14:04:16;;;;;;;4.32;1.17;;;19.90;43.40;;;;;;5093488;28;20104;-68
2022/02/11 14:06:52;;;;;;;4.45;1.23;;;19.60;40.00;;;;;;5090110;28;20032;-67
2022/02/11 14:09:36;;;;;;;4.25;1.00;;;18.40;40.10;;;;;;5084920;28;20017;-68
2022/02/11 14:12:03;;;;;;;4.97;1.10;;;17.40;39.70;;;;;;5078392;28;20031;-68
2022/02/11 14:14:31;;;;;;;4.78;1.17;;;16.50;40.70;;;;;;5101893;28;20035;-67
2022/02/11 14:16:59;;;;;;;3.38;1.20;;;15.80;41.80;;;;;;5090374;28;20474;-67
2022/02/11 14:19:27;;;;;;;4.00;1.25;;;15.60;43.50;;;;;;5077468;28;20078;-66
2022/02/11 14:21:58;;;;;;;3.03;0.75;;;15.40;44.00;;;;;;5064998;28;20114;-68
2022/02/11 14:24:25;;;;;;;5.13;1.23;;;15.20;44.10;;;;;;5086030;28;20020;-68
2022/02/11 14:26:52;;;;;;;5.85;1.17;;;15.10;44.90;;;;;;5085985;28;20036;-68
2022/02/11 14:29:18;;;;;;;4.00;1.23;;;15.10;46.40;;;;;;5086012;28;20047;-67
2022/02/11 14:31:46;;;;;;;3.25;1.00;;;15.00;44.80;;;;;;5086230;28;20570;-68
2022/02/11 14:34:13;;;;;;;4.30;0.90;;;14.40;43.30;;;;;;5086570;28;20035;-69
2022/02/11 14:36:40;;;;;;;2.25;1.00;;;14.10;45.40;;;;;;5088202;28;20468;-68
2022/02/11 14:39:06;;;;;;;4.90;1.15;;;14.00;45.00;;;;;;5085611;28;20027;-68
2022/02/11 14:41:47;;;;;;;3.28;1.00;;;13.80;45.70;;;;;;5058963;28;20033;-66
2022/02/11 14:44:13;;;;;;;3.60;0.82;;;13.60;45.60;;;;;;5075294;28;20436;-64
2022/02/11 14:46:39;;;;;;;3.67;1.17;;;13.50;45.90;;;;;;5089384;28;20020;-67
2022/02/11 14:49:05;;;;;;;3.15;0.80;;;13.60;45.90;;;;;;5078538;28;20112;-67
2022/02/11 14:51:34;;;;;;;3.08;0.95;;;13.50;46.30;;;;;;5055866;28;20040;-67
2022/02/11 14:54:08;;;;;;;3.05;0.95;;;13.30;46.00;;;;;;5077574;28;20032;-67
2022/02/11 14:56:35;;;;;;;2.25;0.90;;;13.10;46.20;;;;;;5056584;28;20396;-67
2022/02/11 14:59:01;;;;;;;4.50;1.13;;;13.00;46.20;;;;;;5089498;28;20036;-67
2022/02/11 15:01:27;;;;;;;3.40;1.10;;;13.00;46.60;;;;;;5095185;28;20034;-67
2022/02/11 15:03:54;;;;;;;3.35;0.88;;;13.00;45.60;;;;;;5088458;28;20023;-64
2022/02/11 15:06:19;;;;;;;2.08;0.90;;;12.90;46.70;;;;;;5081172;28;20036;-63
2022/02/11 15:08:45;;;;;;;2.10;0.82;;;12.90;46.30;;;;;;5084471;28;20029;-63
2022/02/11 15:11:12;;;;;;;3.13;0.85;;;12.80;45.80;;;;;;5088622;28;20024;-64
2022/02/11 15:13:38;;;;;;;3.08;1.00;;;12.70;46.50;;;;;;5090147;28;20051;-63
2022/02/11 15:16:04;;;;;;;3.78;1.00;;;12.70;47.40;;;;;;5084267;28;20039;-64
2022/02/11 15:18:30;;;;;;;2.88;1.00;;;12.80;48.10;;;;;;5086750;28;20103;-63
2022/02/11 15:20:58;;;;;;;3.10;1.15;;;12.90;47.50;;;;;;5089816;28;20161;-63
2022/02/11 15:23:26;;;;;;;2.05;0.82;;;12.80;47.60;;;;;;5089073;28;20026;-63
2022/02/11 15:25:52;;;;;;;3.88;1.00;;;12.80;47.40;;;;;;5089275;28;20032;-64
2022/02/11 15:28:18;;;;;;;2.40;1.00;;;12.80;47.80;;;;;;5090710;28;20372;-63
2022/02/11 15:30:43;;;;;;;4.13;1.30;;;12.80;49.00;;;;;;5089776;28;20488;-63
2022/02/11 15:33:09;;;;;;;3.22;0.80;;;12.80;47.50;;;;;;5089575;28;20028;-63
2022/02/11 15:35:35;;;;;;;3.60;0.95;;;12.50;47.50;;;;;;5088997;28;20024;-63
2022/02/11 15:38:01;;;;;;;3.72;0.80;;;12.50;47.90;;;;;;5088328;28;20067;-63
2022/02/11 15:40:27;;;;;;;4.20;0.90;;;12.50;47.80;;;;;;5091490;28;20020;-63
2022/02/11 15:42:55;;;;;;;3.60;0.80;;;12.50;48.10;;;;;;5089383;28;20598;-63
2022/02/11 15:45:22;;;;;;;3.00;0.80;;;12.50;48.20;;;;;;5088844;28;20058;-63
2022/02/11 15:47:47;;;;;;;3.90;0.93;;;12.50;48.00;;;;;;5088844;28;20195;-63
2022/02/11 15:50:13;;;;;;;2.45;0.90;;;12.50;47.70;;;;;;5088857;28;20037;-63
2022/02/11 15:52:39;;;;;;;3.10;0.98;;;12.50;48.40;;;;;;5090988;28;20484;-63
2022/02/11 15:55:05;;;;;;;2.80;0.70;;;12.40;46.90;;;;;;5093254;28;20508;-63
2022/02/11 15:57:30;;;;;;;4.00;0.80;;;12.30;47.60;;;;;;5093288;28;20103;-63
2022/02/11 15:59:56;;;;;;;2.65;0.65;;;12.30;47.40;;;;;;5093956;28;20118;-63
2022/02/11 16:02:22;;;;;;;3.47;0.88;;;12.30;47.90;;;;;;5073088;28;20031;-63
2022/02/11 16:04:48;;;;;;;3.00;0.88;;;12.30;47.90;;;;;;5075431;28;20567;-63
2022/02/11 16:07:13;;;;;;;2.22;0.68;;;12.20;47.50;;;;;;5094788;28;20020;-66
2022/02/11 16:09:39;;;;;;;5.50;0.93;;;12.20;48.30;;;;;;5094149;28;20038;-63
2022/02/11 16:12:05;;;;;;;2.80;0.70;;;12.30;48.50;;;;;;5094223;28;20028;-63
2022/02/11 16:14:32;;;;;;;2.53;0.82;;;12.20;49.40;;;;;;5091771;28;21460;-64
2022/02/11 16:17:00;;;;;;;2.17;0.90;;;12.20;48.80;;;;;;5091352;28;20103;-63
2022/02/11 16:19:27;;;;;;;4.05;0.85;;;12.20;48.80;;;;;;5096085;28;20387;-63
2022/02/11 16:21:52;;;;;;;3.53;1.17;;;12.20;49.10;;;;;;5093671;28;20369;-63
2022/02/11 16:24:18;;;;;;;3.90;1.00;;;12.10;49.10;;;;;;5093851;28;20039;-63
2022/02/11 16:26:44;;;;;;;3.20;0.95;;;12.10;49.40;;;;;;5093633;28;20487;-63
2022/02/11 16:29:09;;;;;;;4.10;1.10;;;12.10;49.20;;;;;;5089529;28;20024;-63
2022/02/11 16:31:35;;;;;;;3.95;0.80;;;12.00;49.30;;;;;;5095778;28;20016;-63
2022/02/11 16:34:02;;;;;;;2.63;0.82;;;12.10;49.70;;;;;;5093867;28;20032;-63
2022/02/11 16:36:28;;;;;;;3.47;0.90;;;12.00;49.40;;;;;;5093126;28;20496;-63
2022/02/11 16:38:54;;;;;;;3.42;0.95;;;12.00;49.70;;;;;;5093290;28;20031;-63
2022/02/11 16:41:22;;;;;;;4.30;0.98;;;11.80;50.60;;;;;;5090713;28;20028;-63
2022/02/11 16:43:49;;;;;;;4.25;1.05;;;11.80;50.20;;;;;;5087192;28;20028;-63
2022/02/11 16:46:15;;;;;;;3.85;0.95;;;11.70;50.20;;;;;;5089283;28;20448;-63
2022/02/11 16:48:40;;;;;;;2.72;1.10;;;11.70;50.50;;;;;;5089227;28;20110;-63
2022/02/11 16:51:07;;;;;;;3.92;1.10;;;11.70;50.70;;;;;;5093907;28;20024;-63
2022/02/11 16:53:33;;;;;;;7.47;1.85;;;11.70;51.00;;;;;;5091801;28;20023;-63
2022/02/11 16:55:58;;;;;;;3.72;1.25;;;11.70;51.30;;;;;;5090768;28;20173;-63
2022/02/11 16:58:25;;;;;;;5.90;2.90;;;11.70;51.20;;;;;;5096219;28;20090;-63
2022/02/11 17:00:52;;;;;;;4.47;1.83;;;11.70;51.50;;;;;;5079574;28;20396;-63